createdAt,value
2022-08-05T00:00:01.767Z,4.70
2022-08-05T00:02:30.763Z,4.90
2022-08-05T00:04:59.776Z,4.60
2022-08-05T00:07:59.717Z,4.20
2022-08-05T00:10:26.995Z,6.27
2022-08-05T00:12:56.447Z,5.03
2022-08-05T00:15:55.350Z,4.63
2022-08-05T00:18:22.663Z,4.80
2022-08-05T00:20:51.331Z,4.70
2022-08-05T00:23:44.693Z,4.30
2022-08-05T00:26:08.389Z,4.50
2022-08-05T00:28:37.295Z,4.87
2022-08-05T00:31:09.473Z,4.13
2022-08-05T00:34:56.561Z,5.47
2022-08-05T00:37:12.691Z,5.00
2022-08-05T00:39:16.454Z,4.90
2022-08-05T00:41:54.913Z,4.40
2022-08-05T00:44:30.914Z,4.83
2022-08-05T00:47:02.080Z,4.50
2022-08-05T00:49:44.735Z,4.27
2022-08-05T00:52:28.671Z,4.20
2022-08-05T00:54:57.793Z,3.90
2022-08-05T00:57:38.438Z,4.27
2022-08-05T01:00:17.067Z,4.83
2022-08-05T01:02:50.203Z,4.10
2022-08-05T01:05:19.296Z,3.97
2022-08-05T01:08:30.338Z,3.97
2022-08-05T01:10:51.486Z,3.60
2022-08-05T01:13:27.524Z,3.60
2022-08-05T01:16:15.094Z,3.47
2022-08-05T01:18:56.426Z,3.57
2022-08-05T01:21:38.124Z,3.20
2022-08-05T01:24:14.109Z,3.03
2022-08-05T01:26:50.007Z,3.20
2022-08-05T01:29:23.224Z,2.97
2022-08-05T01:31:54.481Z,3.20
2022-08-05T01:34:26.790Z,3.10
2022-08-05T01:37:00.456Z,3.03
2022-08-05T01:39:45.738Z,2.60
2022-08-05T01:42:16.497Z,2.77
2022-08-05T01:44:54.279Z,2.47
2022-08-05T01:47:24.381Z,2.53
2022-08-05T01:50:08.510Z,2.90
2022-08-05T01:52:44.942Z,2.63
2022-08-05T01:55:19.879Z,2.53
2022-08-05T01:58:13.083Z,2.57
2022-08-05T02:00:43.849Z,2.50
2022-08-05T02:03:29.103Z,2.40
2022-08-05T02:06:03.400Z,2.50
2022-08-05T02:08:44.887Z,3.27
2022-08-05T02:11:24.220Z,2.40
2022-08-05T02:14:04.948Z,2.50
2022-08-05T02:16:36.893Z,2.43
2022-08-05T02:19:09.167Z,2.57
2022-08-05T02:21:46.687Z,2.13
2022-08-05T02:24:23.226Z,2.40
2022-08-05T02:26:54.543Z,2.40
2022-08-05T02:29:58.106Z,2.20
2022-08-05T02:32:19.755Z,2.20
2022-08-05T02:34:55.010Z,2.70
2022-08-05T02:37:24.690Z,2.30
2022-08-05T02:39:54.000Z,2.67
2022-08-05T02:42:27.344Z,2.40
2022-08-05T02:44:56.902Z,2.60
2022-08-05T02:47:58.376Z,2.20
2022-08-05T02:50:18.148Z,2.60
2022-08-05T02:52:47.494Z,2.53
2022-08-05T02:55:17.622Z,2.40
2022-08-05T02:58:11.169Z,2.37
2022-08-05T03:00:42.169Z,2.10
2022-08-05T03:03:17.120Z,2.40
2022-08-05T03:06:54.855Z,2.47
2022-08-05T03:08:36.863Z,2.20
2022-08-05T03:11:55.196Z,2.50
2022-08-05T03:14:03.023Z,2.33
2022-08-05T03:16:32.174Z,2.60
2022-08-05T03:19:06.504Z,2.23
2022-08-05T03:21:48.728Z,1.97
2022-08-05T03:24:18.564Z,2.37
2022-08-05T03:26:58.166Z,2.70
2022-08-05T03:29:54.417Z,2.47
2022-08-05T03:32:16.317Z,2.30
2022-08-05T03:34:50.453Z,1.97
2022-08-05T03:37:20.395Z,2.30
2022-08-05T03:39:58.723Z,2.17
2022-08-05T03:42:29.147Z,2.43
2022-08-05T03:45:01.494Z,2.40
2022-08-05T03:47:35.431Z,2.60
2022-08-05T03:50:11.439Z,2.30
2022-08-05T03:54:59.098Z,2.30
2022-08-05T03:56:09.781Z,2.30
2022-08-05T03:58:29.143Z,2.00
2022-08-05T04:00:59.147Z,2.43
2022-08-05T04:03:29.493Z,2.10
2022-08-05T04:05:59.759Z,2.30
2022-08-05T04:08:36.366Z,2.70
2022-08-05T04:11:07.528Z,2.10
2022-08-05T04:13:49.813Z,2.60
2022-08-05T04:16:24.206Z,1.97
2022-08-05T04:18:54.750Z,2.00
2022-08-05T04:22:08.280Z,1.93
2022-08-05T04:24:19.540Z,1.90
2022-08-05T04:26:51.306Z,2.07
2022-08-05T04:29:20.394Z,2.07
2022-08-05T04:31:48.702Z,1.97
2022-08-05T04:34:32.614Z,1.80
2022-08-05T04:37:03.902Z,1.80
2022-08-05T04:39:35.406Z,1.90
2022-08-05T04:42:04.218Z,1.43
2022-08-05T04:44:32.561Z,1.90
2022-08-05T04:47:09.162Z,1.80
2022-08-05T04:50:01.678Z,1.73
2022-08-05T04:52:29.197Z,1.50
2022-08-05T04:55:14.036Z,1.77
2022-08-05T04:57:47.566Z,1.77
2022-08-05T05:00:17.011Z,1.40
2022-08-05T05:02:45.414Z,1.77
2022-08-05T05:05:16.826Z,1.73
2022-08-05T05:08:01.758Z,1.83
2022-08-05T05:10:30.972Z,1.90
2022-08-05T05:13:04.051Z,1.87
2022-08-05T05:15:56.194Z,2.00
2022-08-05T05:18:28.753Z,1.90
2022-08-05T05:21:03.369Z,1.80
2022-08-05T05:23:38.987Z,1.80
2022-08-05T05:26:28.835Z,1.70
2022-08-05T05:29:02.132Z,1.73
2022-08-05T05:34:01.945Z,1.70
2022-08-05T05:36:30.593Z,1.60
2022-08-05T05:39:03.607Z,1.63
2022-08-05T05:41:40.841Z,1.70
2022-08-05T05:44:35.497Z,1.90
2022-08-05T05:47:04.039Z,1.50
2022-08-05T05:49:33.549Z,1.80
2022-08-05T05:52:06.004Z,1.90
2022-08-05T05:54:50.329Z,1.40
2022-08-05T05:57:20.400Z,1.43
2022-08-05T05:59:49.248Z,2.10
2022-08-05T06:02:37.448Z,2.17
2022-08-05T06:05:10.422Z,1.43
2022-08-05T06:08:01.167Z,1.60
2022-08-05T06:10:36.582Z,1.50
2022-08-05T06:13:06.421Z,1.77
2022-08-05T06:16:30.385Z,1.67
2022-08-05T06:18:31.138Z,1.43
2022-08-05T06:21:00.119Z,1.53
2022-08-05T06:23:43.562Z,1.40
2022-08-05T06:26:24.141Z,1.57
2022-08-05T06:28:53.662Z,1.43
2022-08-05T06:31:22.633Z,2.00
2022-08-05T06:34:06.369Z,2.00
2022-08-05T06:36:53.459Z,1.60
2022-08-05T06:39:27.052Z,1.50
2022-08-05T06:41:58.989Z,1.50
2022-08-05T06:44:28.145Z,1.37
2022-08-05T06:46:56.539Z,1.70
2022-08-05T06:50:00.185Z,1.33
2022-08-05T06:52:36.655Z,1.53
2022-08-05T06:55:02.363Z,1.40
2022-08-05T06:58:03.960Z,1.60
2022-08-05T07:00:22.176Z,1.50
2022-08-05T07:02:54.192Z,1.70
2022-08-05T07:05:36.854Z,1.40
2022-08-05T07:08:06.271Z,1.30
2022-08-05T07:10:39.219Z,1.70
2022-08-05T07:13:59.199Z,1.57
2022-08-05T07:18:08.339Z,1.60
2022-08-05T07:22:28.504Z,1.70
2022-08-05T07:24:58.148Z,1.70
2022-08-05T07:27:27.780Z,1.60
2022-08-05T07:30:27.399Z,1.60
2022-08-05T07:32:59.094Z,1.30
2022-08-05T07:36:02.114Z,1.63
2022-08-05T07:38:33.775Z,1.60
2022-08-05T07:42:06.730Z,1.70
2022-08-05T07:43:52.643Z,1.60
2022-08-05T07:46:26.816Z,1.80
2022-08-05T07:49:02.592Z,1.50
2022-08-05T07:51:37.281Z,1.80
2022-08-05T07:54:10.506Z,1.80
2022-08-05T07:57:13.903Z,1.80
2022-08-05T07:59:38.860Z,1.73
2022-08-05T08:02:15.989Z,1.53
2022-08-05T08:04:45.917Z,1.57
2022-08-05T08:07:21.122Z,1.50
2022-08-05T08:09:52.568Z,1.53
2022-08-05T08:12:36.931Z,1.30
2022-08-05T08:15:15.699Z,1.50
2022-08-05T08:17:52.545Z,1.50
2022-08-05T08:20:59.714Z,1.37
2022-08-05T08:23:20.980Z,1.30
2022-08-05T08:26:00.611Z,1.50
2022-08-05T08:28:36.672Z,1.20
2022-08-05T08:31:18.774Z,1.33
2022-08-05T08:33:51.439Z,1.17
2022-08-05T08:36:39.262Z,1.20
2022-08-05T08:39:15.689Z,1.50
2022-08-05T08:41:52.102Z,1.33
2022-08-05T08:45:21.421Z,1.07
2022-08-05T08:47:47.576Z,1.37
2022-08-05T08:50:33.131Z,1.70
2022-08-05T08:53:11.955Z,1.30
2022-08-05T08:56:03.947Z,1.53
2022-08-05T08:58:43.644Z,1.23
2022-08-05T09:01:17.982Z,1.40
2022-08-05T09:03:53.068Z,1.40
2022-08-05T09:06:28.090Z,1.00
2022-08-05T09:08:58.734Z,1.20
2022-08-05T09:11:51.176Z,1.40
2022-08-05T09:14:56.546Z,1.30
2022-08-05T09:17:05.694Z,1.20
2022-08-05T09:20:01.604Z,1.10
2022-08-05T09:22:31.871Z,1.30
2022-08-05T09:25:02.094Z,1.30
2022-08-05T09:28:03.935Z,1.30
2022-08-05T09:30:31.059Z,1.43
2022-08-05T09:33:04.718Z,1.50
2022-08-05T09:35:33.474Z,1.30
2022-08-05T09:38:12.342Z,1.40
2022-08-05T09:40:52.345Z,1.40
2022-08-05T09:43:41.255Z,1.70
2022-08-05T09:46:27.946Z,1.40
2022-08-05T09:49:06.727Z,1.50
2022-08-05T09:51:38.284Z,1.43
2022-08-05T09:54:11.571Z,1.20
2022-08-05T09:56:41.049Z,1.20
2022-08-05T09:59:20.227Z,1.50
2022-08-05T10:01:49.073Z,1.33
2022-08-05T10:04:36.244Z,1.30
2022-08-05T10:07:19.570Z,1.60
2022-08-05T10:10:14.041Z,1.50
2022-08-05T10:12:49.899Z,1.40
2022-08-05T10:15:20.860Z,1.50
2022-08-05T10:18:04.643Z,1.40
2022-08-05T10:20:34.077Z,1.17
2022-08-05T10:23:03.396Z,1.20
2022-08-05T10:25:33.247Z,1.77
2022-08-05T10:28:13.458Z,1.30
2022-08-05T10:32:53.996Z,1.30
2022-08-05T10:33:36.138Z,1.30
2022-08-05T10:36:05.554Z,1.47
2022-08-05T10:38:35.064Z,1.10
2022-08-05T10:41:08.364Z,1.20
2022-08-05T10:43:45.463Z,1.27
2022-08-05T10:46:14.634Z,1.23
2022-08-05T10:48:56.481Z,1.13
2022-08-05T10:51:29.056Z,1.50
2022-08-05T10:54:01.762Z,1.10
2022-08-05T10:56:46.459Z,1.07
2022-08-05T11:00:04.362Z,1.20
2022-08-05T11:02:14.283Z,1.30
2022-08-05T11:04:59.106Z,1.20
2022-08-05T11:07:32.939Z,1.30
2022-08-05T11:10:27.766Z,1.20
2022-08-05T11:13:01.439Z,1.00
2022-08-05T11:16:01.007Z,1.10
2022-08-05T11:18:25.730Z,1.10
2022-08-05T11:20:54.743Z,1.10
2022-08-05T11:24:04.619Z,1.30
2022-08-05T11:26:28.384Z,1.00
2022-08-05T11:29:12.052Z,1.60
2022-08-05T11:31:58.825Z,1.17
2022-08-05T11:34:51.607Z,1.02
2022-08-05T11:38:29.106Z,1.10
2022-08-05T11:40:45.241Z,1.15
2022-08-05T11:44:00.993Z,1.05
2022-08-05T11:46:27.404Z,1.00
2022-08-05T11:49:01.070Z,1.17
2022-08-05T11:51:44.616Z,0.90
2022-08-05T11:54:33.165Z,1.02
2022-08-05T11:57:07.716Z,0.85
2022-08-05T11:59:51.479Z,0.98
2022-08-05T12:02:31.317Z,0.98
2022-08-05T12:05:01.452Z,1.30
2022-08-05T12:08:03.330Z,1.08
2022-08-05T12:10:43.072Z,0.98
2022-08-05T12:13:17.314Z,0.90
2022-08-05T12:15:56.822Z,1.08
2022-08-05T12:18:34.573Z,0.90
2022-08-05T12:21:15.176Z,1.10
2022-08-05T12:23:53.491Z,1.08
2022-08-05T12:26:23.151Z,0.93
2022-08-05T12:28:52.643Z,0.98
2022-08-05T12:31:23.771Z,1.00
2022-08-05T12:34:03.005Z,1.00
2022-08-05T12:36:32.231Z,0.95
2022-08-05T12:39:00.653Z,1.08
2022-08-05T12:41:34.296Z,0.85
2022-08-05T12:44:03.895Z,0.90
2022-08-05T12:46:33.794Z,0.95
2022-08-05T12:49:13.889Z,0.85
2022-08-05T12:52:13.746Z,0.80
2022-08-05T12:54:34.285Z,0.80
2022-08-05T12:57:03.721Z,0.82
2022-08-05T13:00:08.536Z,0.90
2022-08-05T13:02:27.349Z,0.80
2022-08-05T13:05:00.703Z,0.70
2022-08-05T13:07:57.337Z,0.65
2022-08-05T13:10:19.650Z,0.68
2022-08-05T13:12:51.333Z,0.65
2022-08-05T13:15:41.997Z,0.60
2022-08-05T13:18:20.019Z,0.60
2022-08-05T13:20:50.507Z,0.68
2022-08-05T13:23:22.597Z,0.60
2022-08-05T13:25:59.270Z,0.73
2022-08-05T13:28:32.042Z,0.90
2022-08-05T13:31:10.917Z,0.65
2022-08-05T13:34:21.506Z,0.70
2022-08-05T13:36:33.527Z,0.88
2022-08-05T13:39:01.965Z,0.82
2022-08-05T13:41:50.370Z,0.80
2022-08-05T13:44:18.670Z,0.70
2022-08-05T13:47:08.465Z,0.98
2022-08-05T13:49:36.201Z,1.05
2022-08-05T13:52:15.312Z,0.70
2022-08-05T13:54:44.226Z,1.05
2022-08-05T13:57:22.805Z,1.00
2022-08-05T13:59:59.330Z,0.60
2022-08-05T14:02:31.385Z,1.00
2022-08-05T14:05:15.171Z,0.60
2022-08-05T14:08:00.017Z,0.63
2022-08-05T14:10:35.543Z,0.80
2022-08-05T14:13:05.869Z,0.95
2022-08-05T14:16:09.128Z,0.70
2022-08-05T14:18:24.161Z,0.60
2022-08-05T14:20:55.085Z,0.70
2022-08-05T14:23:28.091Z,0.70
2022-08-05T14:26:06.430Z,1.03
2022-08-05T14:28:34.892Z,0.93
2022-08-05T14:31:03.836Z,0.90
2022-08-05T14:33:59.647Z,0.80
2022-08-05T14:36:29.003Z,0.80
2022-08-05T14:39:00.213Z,1.10
2022-08-05T14:41:31.226Z,0.83
2022-08-05T14:44:09.930Z,0.80
2022-08-05T14:46:48.198Z,0.80
2022-08-05T14:49:17.586Z,0.70
2022-08-05T14:51:45.924Z,0.93
2022-08-05T14:54:27.862Z,0.82
2022-08-05T14:56:58.810Z,0.70
2022-08-05T14:59:29.525Z,0.75
2022-08-05T15:01:58.360Z,0.75
2022-08-05T15:04:29.018Z,0.80
2022-08-05T15:06:57.640Z,0.80
2022-08-05T15:09:52.286Z,0.70
2022-08-05T15:12:17.165Z,1.00
2022-08-05T15:14:50.043Z,0.90
2022-08-05T15:17:44.521Z,0.80
2022-08-05T15:20:17.051Z,0.73
2022-08-05T15:22:54.454Z,0.83
2022-08-05T15:25:40.980Z,1.00
2022-08-05T15:28:15.825Z,0.70
2022-08-05T15:30:45.877Z,0.70
2022-08-05T15:33:56.417Z,1.00
2022-08-05T15:36:03.915Z,0.90
2022-08-05T15:38:36.551Z,0.90
2022-08-05T15:41:22.799Z,0.90
2022-08-05T15:43:54.573Z,1.00
2022-08-05T15:46:24.194Z,1.20
2022-08-05T15:49:00.948Z,7.37
2022-08-05T15:52:03.984Z,1.83
2022-08-05T15:54:34.943Z,2.23
2022-08-05T15:57:08.039Z,1.67
2022-08-05T15:59:38.235Z,1.00
2022-08-05T16:02:09.433Z,1.20
2022-08-05T16:04:42.787Z,1.30
2022-08-05T16:07:11.588Z,1.13
2022-08-05T16:09:42.119Z,1.40
2022-08-05T16:12:13.522Z,1.30
2022-08-05T16:14:43.592Z,1.40
2022-08-05T16:17:12.372Z,1.40
2022-08-05T16:20:05.723Z,1.60
2022-08-05T16:22:34.335Z,1.80
2022-08-05T16:25:08.052Z,1.90
2022-08-05T16:27:59.968Z,1.60
2022-08-05T16:30:29.294Z,2.00
2022-08-05T16:32:57.788Z,1.87
2022-08-05T16:35:28.011Z,2.03
2022-08-05T16:38:15.524Z,2.00
2022-08-05T16:40:52.316Z,2.17
2022-08-05T16:43:26.077Z,2.20
2022-08-05T16:46:04.249Z,2.07
2022-08-05T16:48:39.018Z,1.80
2022-08-05T16:51:09.178Z,1.83
2022-08-05T16:54:05.365Z,1.80
2022-08-05T16:56:27.670Z,1.80
2022-08-05T16:58:58.299Z,1.80
2022-08-05T17:01:27.411Z,1.70
2022-08-05T17:04:15.850Z,2.00
2022-08-05T17:06:53.376Z,1.80
2022-08-05T17:09:23.191Z,2.20
2022-08-05T17:11:55.927Z,1.80
2022-08-05T17:14:37.177Z,1.73
2022-08-05T17:17:06.804Z,2.70
2022-08-05T17:19:45.734Z,2.40
2022-08-05T17:22:24.806Z,2.17
2022-08-05T17:24:57.771Z,2.27
2022-08-05T17:27:27.414Z,2.20
2022-08-05T17:30:03.857Z,2.50
2022-08-05T17:32:34.598Z,2.30
2022-08-05T17:35:04.047Z,2.00
2022-08-05T17:37:41.575Z,1.70
2022-08-05T17:40:15.208Z,1.60
2022-08-05T17:42:51.182Z,1.50
2022-08-05T17:45:23.070Z,1.20
2022-08-05T17:47:54.941Z,1.60
2022-08-05T17:50:28.103Z,1.47
2022-08-05T17:52:59.178Z,1.53
2022-08-05T17:55:38.368Z,1.70
2022-08-05T17:58:13.040Z,1.57
2022-08-05T18:00:47.206Z,1.47
2022-08-05T18:03:48.408Z,1.60
2022-08-05T18:06:11.288Z,1.47
2022-08-05T18:08:44.875Z,1.70
2022-08-05T18:11:24.026Z,1.30
2022-08-05T18:13:59.691Z,1.93
2022-08-05T18:16:29.649Z,1.67
2022-08-05T18:18:57.992Z,2.50
2022-08-05T18:21:28.172Z,1.60
2022-08-05T18:24:14.927Z,1.50
2022-08-05T18:26:43.805Z,1.40
2022-08-05T18:29:12.329Z,1.60
2022-08-05T18:31:46.706Z,1.30
2022-08-05T18:34:21.762Z,1.33
2022-08-05T18:36:50.703Z,1.60
2022-08-05T18:39:42.055Z,1.70
2022-08-05T18:42:11.502Z,1.50
2022-08-05T18:44:49.311Z,1.30
2022-08-05T18:47:26.543Z,1.20
2022-08-05T18:50:12.919Z,1.30
2022-08-05T18:52:50.805Z,1.40
2022-08-05T18:55:20.459Z,1.30
2022-08-05T18:57:53.825Z,1.10
2022-08-05T19:00:28.693Z,1.00
2022-08-05T19:03:03.590Z,1.20
2022-08-05T19:06:12.382Z,1.40
2022-08-05T19:08:21.808Z,1.10
2022-08-05T19:10:50.478Z,1.10
2022-08-05T19:13:19.733Z,1.10
2022-08-05T19:15:57.468Z,1.00
2022-08-05T19:18:30.019Z,1.20
2022-08-05T19:21:00.380Z,1.00
2022-08-05T19:24:06.563Z,1.40
2022-08-05T19:26:20.162Z,1.30
2022-08-05T19:28:50.070Z,1.17
2022-08-05T19:31:21.377Z,1.20
2022-08-05T19:33:56.264Z,1.10
2022-08-05T19:36:25.397Z,1.20
2022-08-05T19:38:55.096Z,1.23
2022-08-05T19:42:05.549Z,1.60
2022-08-05T19:44:18.814Z,1.20
2022-08-05T19:46:47.376Z,1.10
2022-08-05T19:49:20.310Z,1.10
2022-08-05T19:52:05.760Z,1.10
2022-08-05T19:54:37.545Z,1.17
2022-08-05T19:57:09.245Z,1.00
2022-08-05T19:59:56.057Z,1.37
2022-08-05T20:02:28.018Z,1.30
2022-08-05T20:04:59.494Z,1.40
2022-08-05T20:07:46.887Z,1.30
2022-08-05T20:10:19.417Z,1.10
2022-08-05T20:12:50.774Z,1.10
2022-08-05T20:15:23.374Z,1.03
2022-08-05T20:18:10.861Z,1.20
2022-08-05T20:20:59.898Z,1.00
2022-08-05T20:23:39.358Z,1.17
2022-08-05T20:26:17.671Z,1.00
2022-08-05T20:28:48.549Z,1.13
2022-08-05T20:31:17.283Z,1.20
2022-08-05T20:33:45.982Z,1.27
2022-08-05T20:36:18.094Z,1.20
2022-08-05T20:38:53.573Z,1.10
2022-08-05T20:41:26.865Z,1.10
2022-08-05T20:43:59.988Z,1.10
2022-08-05T20:46:31.366Z,1.17
2022-08-05T20:49:00.581Z,1.17
2022-08-05T20:51:32.282Z,1.10
2022-08-05T20:54:01.369Z,1.30
2022-08-05T20:56:40.159Z,1.27
2022-08-05T20:59:14.153Z,1.10
2022-08-05T21:01:57.332Z,1.10
2022-08-05T21:04:26.787Z,1.13
2022-08-05T21:06:57.006Z,1.20
2022-08-05T21:09:26.582Z,1.00
2022-08-05T21:12:10.353Z,1.27
2022-08-05T21:14:40.138Z,1.13
2022-08-05T21:17:08.445Z,1.30
2022-08-05T21:19:47.554Z,5.40
2022-08-05T21:22:23.080Z,1.33
2022-08-05T21:24:52.507Z,1.20
2022-08-05T21:27:25.124Z,1.70
2022-08-05T21:29:55.464Z,1.37
2022-08-05T21:32:26.739Z,3.30
2022-08-05T21:35:16.958Z,1.23
2022-08-05T21:37:47.136Z,1.20
2022-08-05T21:40:21.684Z,1.40
2022-08-05T21:42:52.007Z,1.30
2022-08-05T21:45:24.802Z,1.07
2022-08-05T21:48:07.969Z,1.20
2022-08-05T21:50:37.319Z,1.10
2022-08-05T21:53:16.126Z,1.27
2022-08-05T21:56:04.608Z,1.20
2022-08-05T21:58:33.665Z,2.90
2022-08-05T22:01:02.320Z,1.50
2022-08-05T22:03:52.752Z,2.23
2022-08-05T22:06:22.487Z,1.07
2022-08-05T22:08:53.183Z,1.30
2022-08-05T22:11:35.125Z,1.40
2022-08-05T22:14:06.407Z,1.63
2022-08-05T22:16:55.938Z,1.10
2022-08-05T22:20:01.701Z,1.13
2022-08-05T22:22:15.607Z,1.10
2022-08-05T22:25:03.563Z,1.20
2022-08-05T22:28:04.920Z,1.50
2022-08-05T22:30:37.693Z,1.50
2022-08-05T22:33:57.081Z,1.10
2022-08-05T22:36:14.158Z,2.00
2022-08-05T22:38:43.244Z,3.10
2022-08-05T22:41:13.152Z,1.10
2022-08-05T22:43:43.490Z,2.40
2022-08-05T22:46:23.080Z,2.07
2022-08-05T22:48:51.950Z,1.20
2022-08-05T22:51:22.791Z,1.20
2022-08-05T22:53:58.524Z,1.10
2022-08-05T22:56:30.316Z,1.23
2022-08-05T22:59:02.938Z,1.10
2022-08-05T23:02:03.805Z,1.73
2022-08-05T23:04:21.515Z,1.30
2022-08-05T23:06:49.866Z,1.20
2022-08-05T23:09:27.882Z,1.30
2022-08-05T23:12:08.427Z,1.10
2022-08-05T23:14:37.286Z,1.40
2022-08-05T23:17:34.902Z,1.33
2022-08-05T23:20:17.805Z,1.20
2022-08-05T23:22:48.344Z,1.40
2022-08-05T23:25:51.589Z,1.40
2022-08-05T23:28:08.024Z,1.50
2022-08-05T23:30:39.664Z,1.43
2022-08-05T23:33:16.113Z,1.30
2022-08-05T23:35:51.486Z,1.30
2022-08-05T23:38:20.012Z,1.30
2022-08-05T23:40:49.457Z,1.30
2022-08-05T23:43:25.159Z,1.20
2022-08-05T23:46:21.105Z,1.30
2022-08-05T23:48:59.876Z,1.30
2022-08-05T23:51:52.403Z,1.53
2022-08-05T23:54:25.829Z,1.17
2022-08-05T23:56:55.110Z,1.60
2022-08-05T23:59:37.372Z,1.00
